Time;durP1;ratioP1;P1;durP2;ratioP2;P2;SDS_P1;SDS_P2;PMS_P1;PMS_P2;Temp;Humidity;BMP_temperature;BMP_pressure;BME280_temperature;BME280_humidity;BME280_pressure;Samples;Min_cycle;Max_cycle;Signal;HPM_P1;HPM_P2
2023/08/22 00:01:47;;;;;;;8.10;5.20;;;;;;;;;;5073100;28;20444;-64
2023/08/22 00:04:14;;;;;;;11.37;6.13;;;;;;;;;;5073511;28;20575;-64
2023/08/22 00:06:41;;;;;;;12.40;7.00;;;;;;;;;;5073308;28;20523;-65
2023/08/22 00:09:09;;;;;;;5.27;4.77;;;;;;;;;;5073168;28;20529;-64
2023/08/22 00:11:37;;;;;;;7.33;5.17;;;;;;;;;;5073464;28;20925;-64
2023/08/22 00:14:04;;;;;;;5.73;5.13;;;;;;;;;;5073328;28;20538;-64
2023/08/22 00:16:33;;;;;;;6.30;5.03;;;;;;;;;;5073593;28;20538;-64
2023/08/22 00:19:00;;;;;;;7.33;5.53;;;;;;;;;;5073658;28;20441;-64
2023/08/22 00:21:30;;;;;;;7.47;5.10;;;;;;;;;;5073652;28;20431;-63
2023/08/22 00:23:57;;;;;;;7.07;4.97;;;;;;;;;;5073341;28;20544;-64
2023/08/22 00:26:24;;;;;;;8.73;4.87;;;;;;;;;;5072685;28;20470;-64
2023/08/22 00:28:51;;;;;;;6.40;5.67;;;;;;;;;;5073233;28;20522;-64
2023/08/22 00:31:19;;;;;;;10.10;5.50;;;;;;;;;;5073101;28;20457;-63
2023/08/22 00:33:47;;;;;;;8.80;5.20;;;;;;;;;;5073089;28;20453;-64
2023/08/22 00:36:14;;;;;;;9.60;6.17;;;;;;;;;;5072670;28;20930;-64
2023/08/22 00:38:41;;;;;;;7.10;4.97;;;;;;;;;;5073108;28;20793;-64
2023/08/22 00:41:09;;;;;;;6.83;5.50;;;;;;;;;;5072839;28;20969;-64
2023/08/22 00:43:36;;;;;;;6.73;5.30;;;;;;;;;;5072853;28;20567;-64
2023/08/22 00:46:03;;;;;;;7.47;5.50;;;;;;;;;;5073002;28;20534;-64
2023/08/22 00:48:30;;;;;;;7.97;5.90;;;;;;;;;;5072939;28;20836;-64
2023/08/22 00:50:59;;;;;;;7.40;5.50;;;;;;;;;;5073154;28;20790;-64
2023/08/22 00:53:26;;;;;;;7.80;5.40;;;;;;;;;;5072638;28;20482;-64
2023/08/22 00:55:53;;;;;;;8.97;5.43;;;;;;;;;;5072630;28;20932;-64
2023/08/22 00:58:21;;;;;;;6.03;5.40;;;;;;;;;;5073033;28;20477;-64
2023/08/22 01:00:48;;;;;;;6.83;5.07;;;;;;;;;;5072634;28;20466;-64
2023/08/22 01:03:15;;;;;;;6.60;5.27;;;;;;;;;;5072677;28;20459;-64
2023/08/22 01:05:47;;;;;;;9.13;5.50;;;;;;;;;;5073050;28;20439;-64
2023/08/22 01:08:19;;;;;;;10.33;5.47;;;;;;;;;;5072901;28;20451;-64
2023/08/22 01:10:47;;;;;;;5.63;5.13;;;;;;;;;;5072461;28;20522;-64
2023/08/22 01:13:19;;;;;;;8.97;5.60;;;;;;;;;;5072580;28;20442;-64
2023/08/22 01:15:46;;;;;;;8.80;5.60;;;;;;;;;;5073142;28;20511;-64
2023/08/22 01:18:15;;;;;;;6.57;5.30;;;;;;;;;;5072753;28;20523;-63
2023/08/22 01:20:42;;;;;;;7.93;5.63;;;;;;;;;;5072850;28;20455;-63
2023/08/22 01:23:11;;;;;;;8.00;5.20;;;;;;;;;;5072299;28;20440;-63
2023/08/22 01:25:39;;;;;;;9.87;5.83;;;;;;;;;;5073195;28;20440;-63
2023/08/22 01:28:10;;;;;;;7.60;5.37;;;;;;;;;;5072101;28;20929;-63
2023/08/22 01:30:42;;;;;;;6.57;5.40;;;;;;;;;;5072870;28;20821;-63
2023/08/22 01:33:13;;;;;;;8.60;5.30;;;;;;;;;;5072210;28;20424;-63
2023/08/22 01:35:41;;;;;;;7.00;5.47;;;;;;;;;;5072570;28;20516;-64
2023/08/22 01:38:09;;;;;;;6.63;5.50;;;;;;;;;;5072616;28;20529;-63
2023/08/22 01:40:38;;;;;;;8.50;6.13;;;;;;;;;;5072561;28;20525;-63
2023/08/22 01:43:05;;;;;;;8.00;5.37;;;;;;;;;;5072653;28;20533;-63
2023/08/22 01:45:32;;;;;;;8.43;5.30;;;;;;;;;;5072227;28;20504;-64
2023/08/22 01:47:59;;;;;;;5.90;5.20;;;;;;;;;;5072422;28;20523;-63
2023/08/22 01:50:27;;;;;;;12.53;5.60;;;;;;;;;;5072535;28;20530;-63
2023/08/22 01:52:54;;;;;;;7.37;5.30;;;;;;;;;;5071926;28;20812;-64
2023/08/22 01:55:21;;;;;;;5.90;5.37;;;;;;;;;;5072452;28;20427;-63
2023/08/22 01:57:49;;;;;;;9.23;5.67;;;;;;;;;;5072086;28;20478;-63
2023/08/22 02:00:17;;;;;;;6.90;5.30;;;;;;;;;;5072276;28;20447;-64
2023/08/22 02:02:44;;;;;;;8.57;5.20;;;;;;;;;;5072202;28;20436;-64
2023/08/22 02:05:11;;;;;;;6.50;5.83;;;;;;;;;;5075356;28;20575;-64
2023/08/22 02:07:38;;;;;;;6.30;5.33;;;;;;;;;;5075538;28;20446;-64
2023/08/22 02:10:06;;;;;;;6.67;5.50;;;;;;;;;;5075558;28;20947;-64
2023/08/22 02:12:33;;;;;;;13.57;7.37;;;;;;;;;;5075665;28;20529;-65
2023/08/22 02:15:02;;;;;;;9.10;5.53;;;;;;;;;;5075717;28;20463;-63
2023/08/22 02:17:29;;;;;;;6.03;5.10;;;;;;;;;;5075674;28;20432;-64
2023/08/22 02:19:56;;;;;;;10.87;5.27;;;;;;;;;;5075352;28;20906;-64
2023/08/22 02:22:24;;;;;;;8.70;5.03;;;;;;;;;;5075999;28;20479;-64
2023/08/22 02:24:51;;;;;;;8.43;5.83;;;;;;;;;;5075594;28;20483;-64
2023/08/22 02:27:18;;;;;;;9.63;5.17;;;;;;;;;;5075511;28;20496;-64
2023/08/22 02:29:45;;;;;;;8.63;5.03;;;;;;;;;;5075152;28;20483;-64
2023/08/22 02:32:14;;;;;;;8.13;5.30;;;;;;;;;;5075148;28;20905;-64
2023/08/22 02:34:41;;;;;;;8.77;4.83;;;;;;;;;;5075415;28;20441;-64
2023/08/22 02:37:08;;;;;;;8.37;6.00;;;;;;;;;;5075658;28;20538;-64
2023/08/22 02:39:35;;;;;;;6.00;5.27;;;;;;;;;;5075186;28;20437;-64
2023/08/22 02:42:03;;;;;;;8.37;5.10;;;;;;;;;;5075676;28;20466;-64
2023/08/22 02:44:30;;;;;;;5.60;4.40;;;;;;;;;;5075196;28;20554;-64
2023/08/22 02:46:57;;;;;;;9.27;5.33;;;;;;;;;;5075365;28;20539;-64
2023/08/22 02:49:25;;;;;;;8.20;5.10;;;;;;;;;;5075085;28;20878;-64
2023/08/22 02:51:53;;;;;;;9.40;5.20;;;;;;;;;;5075100;28;20529;-64
2023/08/22 02:54:20;;;;;;;5.80;4.67;;;;;;;;;;5074684;28;20476;-64
2023/08/22 02:56:48;;;;;;;11.77;5.73;;;;;;;;;;5074941;28;20498;-64
2023/08/22 02:59:16;;;;;;;9.03;5.30;;;;;;;;;;5074794;28;20437;-64
2023/08/22 03:01:43;;;;;;;10.47;4.90;;;;;;;;;;5074856;28;20441;-64
2023/08/22 03:04:11;;;;;;;4.97;4.40;;;;;;;;;;5074580;28;20486;-65
2023/08/22 03:06:39;;;;;;;5.77;5.13;;;;;;;;;;5074532;28;20968;-65
2023/08/22 03:09:07;;;;;;;6.00;5.47;;;;;;;;;;5074763;28;20536;-64
2023/08/22 03:11:34;;;;;;;5.40;5.00;;;;;;;;;;5074527;28;20483;-64
2023/08/22 03:14:01;;;;;;;9.40;5.23;;;;;;;;;;5074390;28;20526;-64
2023/08/22 03:16:29;;;;;;;8.67;5.10;;;;;;;;;;5074344;28;20496;-64
2023/08/22 03:18:57;;;;;;;7.20;4.67;;;;;;;;;;5074698;28;20515;-64
2023/08/22 03:21:24;;;;;;;5.20;4.70;;;;;;;;;;5074783;28;20486;-64
2023/08/22 03:23:52;;;;;;;5.50;5.00;;;;;;;;;;5074370;28;20806;-64
2023/08/22 03:26:20;;;;;;;14.30;6.70;;;;;;;;;;5074233;28;20440;-64
2023/08/22 03:28:47;;;;;;;8.53;5.30;;;;;;;;;;5073829;28;20437;-64
2023/08/22 03:31:14;;;;;;;7.00;6.20;;;;;;;;;;5074183;28;20467;-63
2023/08/22 03:33:41;;;;;;;7.83;6.00;;;;;;;;;;5074041;28;20443;-64
2023/08/22 03:36:08;;;;;;;6.30;5.53;;;;;;;;;;5074538;28;20525;-63
2023/08/22 03:38:35;;;;;;;6.70;5.47;;;;;;;;;;5074050;28;20466;-64
2023/08/22 03:41:04;;;;;;;9.60;5.40;;;;;;;;;;5073630;28;21043;-64
2023/08/22 03:43:31;;;;;;;7.70;5.60;;;;;;;;;;5073945;28;20436;-64
2023/08/22 03:45:58;;;;;;;6.67;5.47;;;;;;;;;;5073857;28;20478;-64
2023/08/22 03:48:26;;;;;;;6.00;5.03;;;;;;;;;;5073919;28;20459;-63
2023/08/22 03:50:53;;;;;;;9.23;5.20;;;;;;;;;;5073723;28;20439;-64
2023/08/22 03:53:20;;;;;;;11.47;5.37;;;;;;;;;;5076520;28;20568;-63
2023/08/22 03:55:47;;;;;;;8.53;7.30;;;;;;;;;;5092430;28;20467;-64
2023/08/22 03:58:16;;;;;;;6.87;5.50;;;;;;;;;;5093150;28;20508;-64
2023/08/22 04:00:43;;;;;;;7.73;4.70;;;;;;;;;;5093165;28;20522;-63
2023/08/22 04:03:10;;;;;;;7.57;5.60;;;;;;;;;;5092941;28;20482;-64
2023/08/22 04:05:38;;;;;;;6.00;5.40;;;;;;;;;;5092541;28;20475;-64
2023/08/22 04:08:05;;;;;;;8.70;6.17;;;;;;;;;;5092890;28;20537;-63
2023/08/22 04:10:32;;;;;;;9.83;5.00;;;;;;;;;;5092930;28;20446;-64
2023/08/22 04:12:59;;;;;;;8.40;4.83;;;;;;;;;;5092650;28;20471;-64
2023/08/22 04:15:28;;;;;;;8.20;5.37;;;;;;;;;;5093032;28;20447;-64
2023/08/22 04:17:55;;;;;;;6.07;5.43;;;;;;;;;;5091990;28;20924;-64
2023/08/22 04:20:23;;;;;;;10.73;5.10;;;;;;;;;;5092930;28;20477;-65
2023/08/22 04:22:50;;;;;;;5.77;5.17;;;;;;;;;;5092378;28;20549;-64
2023/08/22 04:25:17;;;;;;;6.37;5.37;;;;;;;;;;5092168;28;20821;-64
2023/08/22 04:27:44;;;;;;;6.37;5.17;;;;;;;;;;5092708;28;20469;-64
2023/08/22 04:30:11;;;;;;;5.10;4.70;;;;;;;;;;5092743;28;20514;-63
2023/08/22 04:32:40;;;;;;;9.50;4.90;;;;;;;;;;5092964;28;20451;-64
2023/08/22 04:35:07;;;;;;;7.00;5.87;;;;;;;;;;5092541;28;20888;-64
2023/08/22 04:37:34;;;;;;;10.77;7.57;;;;;;;;;;5093352;28;20924;-61
2023/08/22 04:40:03;;;;;;;8.83;7.23;;;;;;;;;;5093400;28;20439;-64
2023/08/22 04:42:30;;;;;;;7.13;5.30;;;;;;;;;;5092889;28;20525;-63
2023/08/22 04:44:58;;;;;;;10.40;4.97;;;;;;;;;;5092680;28;20512;-62
2023/08/22 04:47:25;;;;;;;7.50;4.93;;;;;;;;;;5092485;28;20458;-62
2023/08/22 04:49:53;;;;;;;8.33;5.10;;;;;;;;;;5092489;28;20925;-63
2023/08/22 04:52:20;;;;;;;9.67;5.53;;;;;;;;;;5092558;28;20439;-63
2023/08/22 04:54:48;;;;;;;6.60;5.70;;;;;;;;;;5092524;28;20581;-63
2023/08/22 04:57:15;;;;;;;6.60;5.80;;;;;;;;;;5092849;28;20531;-62
2023/08/22 04:59:42;;;;;;;5.90;5.00;;;;;;;;;;5093204;28;20440;-62
2023/08/22 05:02:09;;;;;;;8.00;5.20;;;;;;;;;;5093174;28;20453;-63
2023/08/22 05:04:36;;;;;;;8.23;5.80;;;;;;;;;;5092261;28;20517;-62
2023/08/22 05:07:05;;;;;;;11.27;6.00;;;;;;;;;;5092412;28;20935;-62
2023/08/22 05:09:32;;;;;;;8.20;5.73;;;;;;;;;;5092989;28;20438;-63
2023/08/22 05:11:59;;;;;;;10.10;5.40;;;;;;;;;;5092826;28;20528;-62
2023/08/22 05:14:27;;;;;;;8.87;5.57;;;;;;;;;;5092936;28;20443;-62
2023/08/22 05:16:55;;;;;;;7.30;5.53;;;;;;;;;;5092955;28;20507;-62
2023/08/22 05:19:22;;;;;;;12.17;5.93;;;;;;;;;;5092634;28;20956;-62
2023/08/22 05:21:49;;;;;;;9.23;5.80;;;;;;;;;;5092957;28;20442;-62
2023/08/22 05:24:18;;;;;;;8.67;6.03;;;;;;;;;;5093169;28;20446;-62
2023/08/22 05:26:45;;;;;;;6.70;5.77;;;;;;;;;;5092620;28;20558;-62
2023/08/22 05:29:12;;;;;;;8.27;5.67;;;;;;;;;;5092568;28;20439;-62
2023/08/22 05:31:39;;;;;;;9.70;5.40;;;;;;;;;;5092676;28;20858;-62
2023/08/22 05:34:06;;;;;;;8.90;5.67;;;;;;;;;;5092895;28;20443;-62
2023/08/22 05:36:33;;;;;;;9.90;4.93;;;;;;;;;;5093232;28;20439;-62
2023/08/22 05:39:01;;;;;;;13.40;6.63;;;;;;;;;;5094358;28;20470;-62
2023/08/22 05:41:29;;;;;;;6.50;5.50;;;;;;;;;;5096584;28;20447;-62
2023/08/22 05:43:56;;;;;;;13.87;6.20;;;;;;;;;;5096287;28;20940;-62
2023/08/22 05:46:23;;;;;;;10.43;5.20;;;;;;;;;;5096876;28;20861;-62
2023/08/22 05:48:51;;;;;;;9.27;6.63;;;;;;;;;;5097093;28;20431;-62
2023/08/22 05:51:18;;;;;;;13.80;6.40;;;;;;;;;;5096489;28;20525;-62
2023/08/22 05:53:45;;;;;;;10.90;6.37;;;;;;;;;;5096441;28;20473;-62
2023/08/22 05:56:12;;;;;;;10.27;6.40;;;;;;;;;;5096053;28;20443;-62
2023/08/22 05:58:41;;;;;;;10.93;6.13;;;;;;;;;;5095719;28;20452;-62
2023/08/22 06:01:09;;;;;;;11.27;6.37;;;;;;;;;;5095908;28;20496;-62
2023/08/22 06:03:37;;;;;;;13.33;6.80;;;;;;;;;;5096395;28;20797;-62
2023/08/22 06:06:04;;;;;;;12.30;6.10;;;;;;;;;;5095858;28;20481;-62
2023/08/22 06:08:31;;;;;;;11.53;5.80;;;;;;;;;;5096134;28;20435;-62
2023/08/22 06:10:58;;;;;;;11.10;6.20;;;;;;;;;;5095808;28;20526;-62
2023/08/22 06:13:26;;;;;;;10.23;6.17;;;;;;;;;;5095975;28;20526;-62
2023/08/22 06:15:54;;;;;;;10.50;5.80;;;;;;;;;;5095830;28;20522;-62
2023/08/22 06:18:21;;;;;;;9.03;7.40;;;;;;;;;;5095814;28;21020;-62
2023/08/22 06:20:49;;;;;;;16.13;6.53;;;;;;;;;;5095687;28;20859;-63
2023/08/22 06:23:16;;;;;;;10.13;6.00;;;;;;;;;;5095482;28;20450;-62
2023/08/22 06:25:43;;;;;;;12.73;7.33;;;;;;;;;;5095247;28;20482;-62
2023/08/22 06:28:11;;;;;;;11.23;7.10;;;;;;;;;;5095638;28;20857;-63
2023/08/22 06:30:38;;;;;;;17.87;6.77;;;;;;;;;;5095641;28;20470;-62
2023/08/22 06:33:06;;;;;;;26.33;7.20;;;;;;;;;;5095614;28;20440;-62
2023/08/22 06:35:34;;;;;;;11.30;6.80;;;;;;;;;;5095289;28;20439;-62
2023/08/22 06:38:01;;;;;;;11.90;6.97;;;;;;;;;;5095437;28;20527;-62
2023/08/22 06:40:28;;;;;;;19.47;7.33;;;;;;;;;;5095621;28;20532;-62
2023/08/22 06:42:55;;;;;;;16.10;6.77;;;;;;;;;;5095034;28;20528;-62
2023/08/22 06:45:22;;;;;;;12.63;6.40;;;;;;;;;;5095010;28;20475;-62
2023/08/22 06:47:50;;;;;;;10.00;6.93;;;;;;;;;;5094961;28;20874;-62
2023/08/22 06:50:18;;;;;;;14.50;7.70;;;;;;;;;;5094986;28;20519;-62
2023/08/22 06:52:45;;;;;;;12.73;6.63;;;;;;;;;;5095095;28;20454;-63
2023/08/22 06:55:13;;;;;;;7.93;6.73;;;;;;;;;;5094915;28;20928;-62
2023/08/22 06:57:40;;;;;;;7.80;6.10;;;;;;;;;;5095144;28;20792;-62
2023/08/22 07:00:13;;;;;;;10.17;6.60;;;;;;;;;;5094950;28;20519;-62
2023/08/22 07:02:41;;;;;;;11.30;6.23;;;;;;;;;;5095338;28;20427;-63
2023/08/22 07:05:09;;;;;;;7.87;6.70;;;;;;;;;;5095545;28;20445;-63
2023/08/22 07:07:37;;;;;;;12.80;5.47;;;;;;;;;;5094742;28;20462;-62
2023/08/22 07:10:06;;;;;;;8.33;5.43;;;;;;;;;;5094770;28;20433;-63
2023/08/22 07:12:33;;;;;;;10.43;5.97;;;;;;;;;;5094848;28;20445;-62
2023/08/22 07:15:00;;;;;;;7.73;5.00;;;;;;;;;;5094905;28;20433;-63
2023/08/22 07:17:28;;;;;;;6.63;5.30;;;;;;;;;;5094982;28;20452;-63
2023/08/22 07:19:55;;;;;;;12.80;5.07;;;;;;;;;;5094792;28;20820;-63
2023/08/22 07:22:22;;;;;;;6.47;4.60;;;;;;;;;;5094721;28;20463;-63
2023/08/22 07:24:50;;;;;;;10.97;4.73;;;;;;;;;;5094660;28;20439;-63
2023/08/22 07:27:18;;;;;;;7.93;5.60;;;;;;;;;;5094855;28;20828;-63
2023/08/22 07:29:46;;;;;;;4.97;4.43;;;;;;;;;;5094332;28;20453;-63
2023/08/22 07:32:13;;;;;;;6.87;4.50;;;;;;;;;;5094060;28;20938;-63
2023/08/22 07:34:40;;;;;;;12.13;5.13;;;;;;;;;;5094927;28;20471;-63
2023/08/22 07:37:07;;;;;;;6.30;4.37;;;;;;;;;;5094943;28;20446;-63
2023/08/22 07:39:34;;;;;;;8.40;4.57;;;;;;;;;;5094703;28;20861;-63
2023/08/22 07:42:04;;;;;;;8.20;4.60;;;;;;;;;;5094276;28;20433;-63
2023/08/22 07:44:31;;;;;;;6.83;4.50;;;;;;;;;;5094246;28;20474;-63
2023/08/22 07:46:59;;;;;;;9.03;4.90;;;;;;;;;;5094076;28;20507;-63
2023/08/22 07:49:26;;;;;;;8.90;4.53;;;;;;;;;;5093960;28;21010;-63
2023/08/22 07:51:53;;;;;;;8.00;4.70;;;;;;;;;;5094176;28;20954;-64
2023/08/22 07:54:21;;;;;;;7.90;5.20;;;;;;;;;;5093462;28;20504;-63
2023/08/22 07:56:48;;;;;;;9.77;5.00;;;;;;;;;;5094487;28;20455;-63
2023/08/22 07:59:17;;;;;;;6.33;4.50;;;;;;;;;;5094164;28;20443;-63
2023/08/22 08:01:44;;;;;;;8.00;4.83;;;;;;;;;;5092827;28;20439;-63
2023/08/22 08:04:11;;;;;;;6.00;3.97;;;;;;;;;;5093216;28;20465;-63
2023/08/22 08:06:38;;;;;;;6.77;4.53;;;;;;;;;;5093793;28;20498;-63
2023/08/22 08:09:05;;;;;;;8.13;5.23;;;;;;;;;;5093808;28;20445;-63
2023/08/22 08:11:33;;;;;;;7.30;4.80;;;;;;;;;;5093475;28;20448;-63
2023/08/22 08:14:01;;;;;;;7.57;4.73;;;;;;;;;;5093658;28;20513;-63
2023/08/22 08:16:31;;;;;;;11.33;4.70;;;;;;;;;;5093749;28;20536;-63
2023/08/22 08:18:58;;;;;;;6.57;4.80;;;;;;;;;;5093408;28;20514;-63
2023/08/22 08:21:26;;;;;;;6.07;4.67;;;;;;;;;;5093599;28;20442;-63
2023/08/22 08:23:53;;;;;;;8.20;4.17;;;;;;;;;;5093231;28;20448;-63
2023/08/22 08:26:20;;;;;;;8.77;5.10;;;;;;;;;;5093447;28;20475;-63
2023/08/22 08:28:47;;;;;;;9.03;4.77;;;;;;;;;;5093333;28;20529;-63
2023/08/22 08:31:14;;;;;;;6.00;4.00;;;;;;;;;;5093070;28;20465;-63
2023/08/22 08:33:43;;;;;;;6.13;4.67;;;;;;;;;;5093575;28;20803;-63
2023/08/22 08:36:10;;;;;;;5.10;4.43;;;;;;;;;;5093679;28;20525;-63
2023/08/22 08:38:37;;;;;;;6.00;4.03;;;;;;;;;;5093505;28;20443;-63
2023/08/22 08:41:05;;;;;;;10.03;4.90;;;;;;;;;;5092954;28;20446;-63
2023/08/22 08:43:33;;;;;;;5.30;3.97;;;;;;;;;;5093274;28;20446;-63
2023/08/22 08:46:01;;;;;;;9.60;4.37;;;;;;;;;;5093279;28;20475;-63
2023/08/22 08:48:28;;;;;;;9.70;4.57;;;;;;;;;;5092908;28;20530;-63
2023/08/22 08:50:57;;;;;;;5.20;3.90;;;;;;;;;;5092955;28;20445;-63
2023/08/22 08:53:25;;;;;;;8.63;3.97;;;;;;;;;;5092861;28;20471;-63
2023/08/22 08:55:53;;;;;;;4.00;3.60;;;;;;;;;;5093052;28;20425;-63
2023/08/22 08:58:20;;;;;;;4.80;3.70;;;;;;;;;;5093106;28;20867;-63
2023/08/22 09:00:48;;;;;;;7.73;3.20;;;;;;;;;;5093127;28;20464;-63
2023/08/22 09:03:15;;;;;;;5.30;3.30;;;;;;;;;;5093350;28;20439;-66
2023/08/22 09:05:42;;;;;;;7.50;3.97;;;;;;;;;;5092685;28;20439;-63
2023/08/22 09:08:17;;;;;;;5.93;3.40;;;;;;;;;;5092868;28;20924;-63
2023/08/22 09:10:49;;;;;;;6.60;3.17;;;;;;;;;;5092483;28;20877;-63
2023/08/22 09:13:16;;;;;;;6.70;3.00;;;;;;;;;;5095224;28;20844;-62
2023/08/22 09:15:43;;;;;;;7.60;3.47;;;;;;;;;;5096628;28;20529;-63
2023/08/22 09:18:14;;;;;;;5.40;3.30;;;;;;;;;;5096857;28;20489;-63
2023/08/22 09:20:45;;;;;;;8.50;4.00;;;;;;;;;;5096727;28;20443;-63
2023/08/22 09:23:21;;;;;;;8.00;4.00;;;;;;;;;;5097427;28;20850;-63
2023/08/22 09:25:48;;;;;;;4.20;3.30;;;;;;;;;;5096890;28;20442;-63
2023/08/22 09:28:17;;;;;;;10.23;5.33;;;;;;;;;;5096899;28;20450;-63
2023/08/22 09:30:49;;;;;;;5.53;3.00;;;;;;;;;;5096813;28;20801;-63
2023/08/22 09:33:16;;;;;;;8.37;3.47;;;;;;;;;;5097161;28;20416;-64
2023/08/22 09:35:43;;;;;;;4.10;2.70;;;;;;;;;;5097031;28;20843;-63
2023/08/22 09:38:11;;;;;;;3.53;2.83;;;;;;;;;;5096825;28;20552;-63
2023/08/22 09:40:50;;;;;;;12.57;2.67;;;;;;;;;;5096362;28;20436;-63
2023/08/22 09:43:19;;;;;;;5.10;2.43;;;;;;;;;;5096331;28;20431;-63
2023/08/22 09:45:46;;;;;;;6.30;2.67;;;;;;;;;;5096576;28;20781;-63
2023/08/22 09:48:15;;;;;;;3.70;3.40;;;;;;;;;;5096246;28;20474;-63
2023/08/22 09:50:44;;;;;;;6.40;3.20;;;;;;;;;;5096491;28;20471;-63
2023/08/22 09:53:11;;;;;;;7.50;2.90;;;;;;;;;;5096299;28;20473;-63
2023/08/22 09:55:40;;;;;;;6.93;3.70;;;;;;;;;;5096521;28;20522;-63
2023/08/22 09:58:08;;;;;;;3.03;2.73;;;;;;;;;;5096501;28;20449;-63
2023/08/22 10:00:36;;;;;;;10.37;3.60;;;;;;;;;;5096291;28;20444;-63
2023/08/22 10:03:04;;;;;;;4.50;3.23;;;;;;;;;;5096330;28;20481;-63
2023/08/22 10:05:33;;;;;;;6.30;2.67;;;;;;;;;;5095920;28;20606;-63
2023/08/22 10:08:00;;;;;;;4.07;2.37;;;;;;;;;;5095761;28;20570;-63
2023/08/22 10:10:28;;;;;;;3.50;2.80;;;;;;;;;;5096220;28;20443;-63
2023/08/22 10:12:56;;;;;;;9.63;3.20;;;;;;;;;;5096140;28;20444;-63
2023/08/22 10:15:25;;;;;;;3.63;2.70;;;;;;;;;;5096086;28;20808;-63
2023/08/22 10:17:52;;;;;;;11.00;3.47;;;;;;;;;;5096052;28;20450;-63
2023/08/22 10:20:19;;;;;;;5.50;2.80;;;;;;;;;;5095721;28;20534;-63
2023/08/22 10:22:46;;;;;;;3.53;2.33;;;;;;;;;;5095913;28;20983;-63
2023/08/22 10:25:13;;;;;;;5.50;2.93;;;;;;;;;;5095149;28;20516;-63
2023/08/22 10:27:47;;;;;;;6.20;3.00;;;;;;;;;;5095658;28;20481;-63
2023/08/22 10:30:21;;;;;;;2.90;2.57;;;;;;;;;;5096000;28;20418;-63
2023/08/22 10:33:05;;;;;;;4.53;2.60;;;;;;;;;;5096344;28;20439;-63
2023/08/22 10:35:32;;;;;;;4.53;2.37;;;;;;;;;;5095594;28;20533;-63
2023/08/22 10:38:00;;;;;;;7.33;3.00;;;;;;;;;;5095669;28;20478;-63
2023/08/22 10:40:27;;;;;;;7.47;2.93;;;;;;;;;;5095452;28;20461;-63
2023/08/22 10:43:04;;;;;;;3.40;2.70;;;;;;;;;;5095710;28;20449;-63
2023/08/22 10:45:37;;;;;;;9.07;2.47;;;;;;;;;;5095650;28;20520;-63
2023/08/22 10:48:11;;;;;;;5.30;2.70;;;;;;;;;;5095031;28;20561;-63
2023/08/22 10:50:41;;;;;;;4.03;3.57;;;;;;;;;;5095089;28;20426;-63
2023/08/22 10:53:21;;;;;;;6.97;3.17;;;;;;;;;;5095301;28;20485;-63
2023/08/22 10:55:49;;;;;;;4.70;3.20;;;;;;;;;;5094919;28;20911;-63
2023/08/22 10:58:36;;;;;;;9.40;3.67;;;;;;;;;;5095218;28;20442;-63
2023/08/22 11:01:03;;;;;;;5.13;2.97;;;;;;;;;;5094823;28;20434;-63
2023/08/22 11:03:33;;;;;;;6.60;3.23;;;;;;;;;;5095286;28;20809;-63
2023/08/22 11:06:00;;;;;;;6.47;2.93;;;;;;;;;;5095308;28;20776;-63
2023/08/22 11:08:28;;;;;;;4.90;3.40;;;;;;;;;;5095060;28;20574;-63
2023/08/22 11:10:55;;;;;;;8.60;3.10;;;;;;;;;;5094533;28;20443;-63
2023/08/22 11:13:22;;;;;;;4.53;2.87;;;;;;;;;;5094971;28;20441;-63
2023/08/22 11:15:50;;;;;;;6.90;2.83;;;;;;;;;;5094468;28;20452;-63
2023/08/22 11:18:18;;;;;;;5.80;2.80;;;;;;;;;;5094594;28;20436;-63
2023/08/22 11:20:53;;;;;;;5.20;2.93;;;;;;;;;;5093930;28;20436;-63
2023/08/22 11:23:20;;;;;;;4.93;2.33;;;;;;;;;;5095254;28;20449;-63
2023/08/22 11:25:48;;;;;;;4.80;2.80;;;;;;;;;;5094282;28;20438;-63
2023/08/22 11:28:15;;;;;;;5.80;3.00;;;;;;;;;;5094503;28;20477;-62
2023/08/22 11:30:42;;;;;;;7.33;3.10;;;;;;;;;;5094412;28;20437;-63
2023/08/22 11:33:09;;;;;;;5.57;3.17;;;;;;;;;;5094472;28;20444;-66
2023/08/22 11:35:36;;;;;;;3.63;2.50;;;;;;;;;;5093666;28;20441;-67
2023/08/22 11:38:07;;;;;;;4.33;2.73;;;;;;;;;;5094024;28;20522;-66
2023/08/22 11:40:34;;;;;;;5.03;2.50;;;;;;;;;;5094694;28;20785;-67
2023/08/22 11:43:02;;;;;;;7.47;3.37;;;;;;;;;;5094318;28;20467;-67
2023/08/22 11:45:29;;;;;;;5.57;2.90;;;;;;;;;;5094057;28;20546;-67
2023/08/22 11:47:58;;;;;;;10.00;3.30;;;;;;;;;;5094710;28;20568;-66
2023/08/22 11:50:27;;;;;;;5.47;2.90;;;;;;;;;;5080002;28;20525;-67
2023/08/22 11:52:55;;;;;;;5.80;3.10;;;;;;;;;;5092590;28;20449;-66
2023/08/22 11:55:25;;;;;;;5.90;3.03;;;;;;;;;;5093216;28;20491;-66
2023/08/22 11:57:54;;;;;;;2.87;2.57;;;;;;;;;;5093115;28;20446;-67
2023/08/22 12:00:23;;;;;;;5.77;3.13;;;;;;;;;;5093382;28;20522;-66
2023/08/22 12:02:51;;;;;;;3.73;2.90;;;;;;;;;;5093225;28;20440;-66
2023/08/22 12:05:31;;;;;;;5.93;3.17;;;;;;;;;;5093389;28;20433;-65
2023/08/22 12:07:58;;;;;;;7.47;2.80;;;;;;;;;;5093036;28;20478;-66
2023/08/22 12:10:26;;;;;;;5.50;3.10;;;;;;;;;;5093017;28;20533;-66
2023/08/22 12:12:54;;;;;;;6.33;3.10;;;;;;;;;;5092940;28;20441;-66
2023/08/22 12:15:21;;;;;;;5.07;3.00;;;;;;;;;;5092694;28;20447;-66
2023/08/22 12:17:48;;;;;;;4.93;2.93;;;;;;;;;;5093130;28;20832;-66
2023/08/22 12:20:15;;;;;;;3.87;3.47;;;;;;;;;;5093333;28;20794;-65
2023/08/22 12:22:43;;;;;;;11.70;3.40;;;;;;;;;;5093500;28;20459;-65
2023/08/22 12:25:11;;;;;;;6.03;3.33;;;;;;;;;;5094394;28;20533;-66
2023/08/22 12:27:40;;;;;;;4.00;2.70;;;;;;;;;;5093458;28;20486;-66
2023/08/22 12:30:08;;;;;;;4.47;2.77;;;;;;;;;;5094107;28;20473;-66
2023/08/22 12:32:35;;;;;;;6.07;3.13;;;;;;;;;;5093192;28;20946;-66
2023/08/22 12:35:03;;;;;;;4.03;2.83;;;;;;;;;;5093589;28;20525;-66
2023/08/22 12:37:30;;;;;;;6.40;3.53;;;;;;;;;;5093111;28;20447;-66
2023/08/22 12:39:58;;;;;;;4.50;3.17;;;;;;;;;;5093520;28;20477;-65
2023/08/22 12:42:25;;;;;;;4.30;2.40;;;;;;;;;;5093304;28;21003;-66
2023/08/22 12:44:53;;;;;;;5.90;3.00;;;;;;;;;;5093459;28;20802;-65
2023/08/22 12:47:20;;;;;;;9.40;3.20;;;;;;;;;;5093015;28;20467;-65
2023/08/22 12:49:48;;;;;;;7.83;3.67;;;;;;;;;;5093047;28;20526;-65
2023/08/22 12:52:15;;;;;;;10.00;3.40;;;;;;;;;;5093039;28;20488;-64
2023/08/22 12:54:42;;;;;;;5.97;3.30;;;;;;;;;;5093403;28;20991;-64
2023/08/22 12:57:10;;;;;;;6.00;3.20;;;;;;;;;;5092976;28;20433;-65
2023/08/22 12:59:37;;;;;;;10.97;3.90;;;;;;;;;;5093163;28;20531;-65
2023/08/22 13:02:06;;;;;;;5.07;3.30;;;;;;;;;;5092729;28;20442;-65
2023/08/22 13:04:33;;;;;;;4.87;3.33;;;;;;;;;;5093037;28;20442;-65
2023/08/22 13:07:00;;;;;;;4.97;3.67;;;;;;;;;;5093271;28;20433;-65
2023/08/22 13:09:27;;;;;;;6.40;3.30;;;;;;;;;;5093027;28;20526;-65
2023/08/22 13:11:54;;;;;;;4.30;2.60;;;;;;;;;;5092724;28;20438;-65
2023/08/22 13:14:21;;;;;;;5.63;3.30;;;;;;;;;;5093457;28;20455;-65
2023/08/22 13:16:49;;;;;;;4.17;3.13;;;;;;;;;;5092791;28;20451;-65
2023/08/22 13:19:17;;;;;;;7.73;3.30;;;;;;;;;;5091692;28;20533;-66
2023/08/22 13:21:45;;;;;;;3.77;3.40;;;;;;;;;;5092652;28;20482;-65
2023/08/22 13:24:12;;;;;;;3.90;3.10;;;;;;;;;;5093216;28;20546;-65
2023/08/22 13:26:39;;;;;;;4.80;3.63;;;;;;;;;;5092618;28;20535;-65
2023/08/22 13:29:06;;;;;;;7.17;3.27;;;;;;;;;;5092270;28;20568;-65
2023/08/22 13:31:36;;;;;;;5.90;3.43;;;;;;;;;;5092013;28;20465;-65
2023/08/22 13:34:03;;;;;;;4.27;3.43;;;;;;;;;;5092134;28;20593;-66
2023/08/22 13:36:32;;;;;;;4.17;3.37;;;;;;;;;;5092197;28;20456;-70
2023/08/22 13:38:59;;;;;;;5.13;3.20;;;;;;;;;;5092645;28;20483;-65
2023/08/22 13:41:27;;;;;;;6.13;3.70;;;;;;;;;;5092398;28;20963;-65
2023/08/22 13:43:54;;;;;;;5.00;3.23;;;;;;;;;;5092584;28;20871;-67
2023/08/22 13:46:22;;;;;;;6.20;3.53;;;;;;;;;;5092603;28;20436;-68
2023/08/22 13:48:49;;;;;;;5.20;3.10;;;;;;;;;;5091893;28;20511;-64
2023/08/22 13:51:17;;;;;;;6.37;3.10;;;;;;;;;;5092043;28;20555;-63
2023/08/22 13:53:45;;;;;;;5.40;3.00;;;;;;;;;;5092115;28;20541;-64
2023/08/22 13:56:13;;;;;;;6.10;3.40;;;;;;;;;;5092511;28;20442;-64
2023/08/22 13:58:40;;;;;;;8.03;3.63;;;;;;;;;;5091895;28;20446;-64
2023/08/22 14:01:07;;;;;;;6.83;3.63;;;;;;;;;;5095481;28;20947;-64
2023/08/22 14:03:35;;;;;;;5.70;3.37;;;;;;;;;;5095828;28;20569;-64
2023/08/22 14:06:03;;;;;;;5.80;3.00;;;;;;;;;;5096007;28;20440;-64
2023/08/22 14:08:30;;;;;;;4.63;3.30;;;;;;;;;;5096061;28;20837;-64
2023/08/22 14:10:58;;;;;;;8.93;4.10;;;;;;;;;;5096155;28;20445;-64
2023/08/22 14:13:26;;;;;;;9.33;3.73;;;;;;;;;;5095598;28;20475;-66
2023/08/22 14:15:53;;;;;;;8.63;3.60;;;;;;;;;;5096182;28;20450;-72
2023/08/22 14:18:20;;;;;;;5.77;4.10;;;;;;;;;;5095519;28;20532;-67
2023/08/22 14:20:47;;;;;;;9.57;3.83;;;;;;;;;;5095404;28;21009;-69
2023/08/22 14:23:14;;;;;;;7.40;4.00;;;;;;;;;;5095788;28;20447;-68
2023/08/22 14:25:42;;;;;;;6.50;3.80;;;;;;;;;;5095519;28;20494;-68
2023/08/22 14:28:10;;;;;;;8.97;4.70;;;;;;;;;;5095075;28;20517;-70
2023/08/22 14:30:37;;;;;;;6.50;3.73;;;;;;;;;;5095575;28;20524;-69
2023/08/22 14:33:06;;;;;;;7.17;4.40;;;;;;;;;;5095438;28;20437;-68
2023/08/22 14:35:33;;;;;;;4.07;3.60;;;;;;;;;;5095848;28;20554;-69
2023/08/22 14:38:00;;;;;;;6.97;4.47;;;;;;;;;;5095325;28;20529;-66
2023/08/22 14:40:27;;;;;;;6.97;4.57;;;;;;;;;;5095525;28;20437;-66
2023/08/22 14:42:55;;;;;;;7.90;4.60;;;;;;;;;;5094954;28;20905;-65
2023/08/22 14:45:23;;;;;;;8.13;4.70;;;;;;;;;;5095213;28;20526;-65